createdAt,value
2023-03-08T00:00:55.759Z,5.61
2023-03-08T00:03:23.488Z,5.51
2023-03-08T00:05:51.457Z,5.52
2023-03-08T00:08:19.061Z,5.60
2023-03-08T00:10:50.148Z,5.60
2023-03-08T00:13:18.772Z,5.55
2023-03-08T00:15:46.326Z,5.50
2023-03-08T00:18:15.954Z,5.52
2023-03-08T00:20:43.805Z,5.50
2023-03-08T00:23:11.704Z,5.47
2023-03-08T00:25:39.352Z,5.45
2023-03-08T00:28:07.224Z,5.42
2023-03-08T00:30:34.785Z,5.33
2023-03-08T00:33:03.340Z,5.22
2023-03-08T00:35:31.041Z,5.10
2023-03-08T00:37:58.746Z,5.09
2023-03-08T00:40:26.393Z,5.00
2023-03-08T00:42:54.142Z,4.91
2023-03-08T00:45:21.764Z,4.79
2023-03-08T00:47:49.238Z,4.70
2023-03-08T00:50:17.078Z,4.67
2023-03-08T00:52:44.618Z,4.58
2023-03-08T00:55:14.085Z,4.49
2023-03-08T00:57:41.966Z,4.41
2023-03-08T01:00:12.898Z,4.37
2023-03-08T01:02:41.324Z,4.31
2023-03-08T01:05:09.819Z,4.26
2023-03-08T01:07:37.822Z,4.19
2023-03-08T01:10:07.197Z,4.15
2023-03-08T01:12:36.893Z,4.14
2023-03-08T01:15:05.038Z,4.10
2023-03-08T01:17:34.372Z,4.10
2023-03-08T01:20:01.929Z,4.08
2023-03-08T01:22:29.749Z,4.10
2023-03-08T01:24:57.299Z,3.98
2023-03-08T01:27:25.430Z,4.06
2023-03-08T01:29:52.987Z,3.96
2023-03-08T01:32:20.885Z,3.79
2023-03-08T01:34:49.223Z,3.73
2023-03-08T01:37:16.902Z,3.66
2023-03-08T01:39:44.499Z,3.61
2023-03-08T01:42:12.366Z,3.52
2023-03-08T01:45:28.079Z,3.48
2023-03-08T01:47:56.067Z,3.39
2023-03-08T01:50:30.931Z,3.41
2023-03-08T01:52:58.623Z,3.39
2023-03-08T01:55:26.556Z,3.44
2023-03-08T01:57:55.003Z,3.48
2023-03-08T02:00:24.070Z,3.50
2023-03-08T02:03:05.067Z,3.42
2023-03-08T02:05:32.957Z,3.47
2023-03-08T02:08:09.061Z,3.60
2023-03-08T02:10:38.725Z,3.66
2023-03-08T02:13:07.864Z,3.67
2023-03-08T02:15:39.049Z,3.76
2023-03-08T02:18:06.880Z,3.82
2023-03-08T02:20:40.275Z,3.84
2023-03-08T02:23:11.375Z,3.93
2023-03-08T02:25:39.066Z,3.99
2023-03-08T02:28:09.088Z,3.98
2023-03-08T02:30:37.502Z,4.04
2023-03-08T02:33:05.096Z,4.16
2023-03-08T02:35:32.885Z,4.18
2023-03-08T02:38:10.514Z,4.26
2023-03-08T02:40:38.936Z,4.26
2023-03-08T02:43:07.460Z,4.34
2023-03-08T02:45:36.136Z,4.44
2023-03-08T02:48:04.238Z,4.55
2023-03-08T02:50:32.002Z,4.70
2023-03-08T02:52:59.637Z,4.84
2023-03-08T02:55:27.673Z,4.91
2023-03-08T02:57:55.803Z,4.90
2023-03-08T03:00:24.456Z,5.01
2023-03-08T03:02:53.621Z,5.17
2023-03-08T03:05:21.194Z,5.21
2023-03-08T03:07:51.186Z,5.29
2023-03-08T03:10:21.977Z,5.44
2023-03-08T03:12:50.685Z,5.50
2023-03-08T03:15:21.014Z,5.49
2023-03-08T03:17:53.762Z,5.46
2023-03-08T03:20:21.338Z,5.53
2023-03-08T03:22:49.441Z,5.50
2023-03-08T03:25:18.791Z,5.52
2023-03-08T03:27:47.777Z,5.61
2023-03-08T03:30:16.752Z,5.64
2023-03-08T03:32:44.911Z,5.64
2023-03-08T03:35:16.306Z,5.60
2023-03-08T03:37:44.475Z,5.57
2023-03-08T03:40:12.803Z,5.83
2023-03-08T03:42:40.611Z,5.85
2023-03-08T03:45:13.067Z,5.99
2023-03-08T03:47:41.028Z,5.96
2023-03-08T03:50:10.634Z,6.07
2023-03-08T03:53:07.608Z,6.14
2023-03-08T03:55:36.094Z,6.11
2023-03-08T03:58:10.120Z,6.23
2023-03-08T04:00:58.351Z,6.54
2023-03-08T04:03:32.403Z,6.66
2023-03-08T04:06:17.592Z,6.83
2023-03-08T04:08:52.620Z,6.96
2023-03-08T04:11:25.366Z,6.92
2023-03-08T04:13:53.318Z,7.10
2023-03-08T04:16:30.166Z,7.19
2023-03-08T04:19:02.780Z,7.30
2023-03-08T04:21:32.227Z,7.44
2023-03-08T04:24:00.885Z,7.40
2023-03-08T04:26:32.634Z,7.44
2023-03-08T04:29:06.210Z,7.55
2023-03-08T04:31:37.214Z,7.54
2023-03-08T04:34:09.983Z,7.44
2023-03-08T04:36:39.022Z,7.59
2023-03-08T04:39:07.574Z,7.60
2023-03-08T04:41:40.148Z,7.60
2023-03-08T04:44:21.425Z,7.72
2023-03-08T04:46:56.497Z,7.66
2023-03-08T04:49:31.448Z,7.65
2023-03-08T04:52:02.753Z,7.61
2023-03-08T04:54:34.522Z,7.46
2023-03-08T04:57:12.343Z,7.66
2023-03-08T04:59:40.547Z,7.69
2023-03-08T05:02:09.064Z,7.67
2023-03-08T05:04:38.178Z,7.65
2023-03-08T05:07:08.788Z,7.91
2023-03-08T05:09:37.634Z,7.94
2023-03-08T05:12:05.929Z,8.01
2023-03-08T05:14:53.910Z,8.19
2023-03-08T05:17:22.176Z,8.13
2023-03-08T05:19:55.864Z,8.03
2023-03-08T05:22:31.119Z,8.16
2023-03-08T05:24:59.140Z,8.22
2023-03-08T05:27:27.875Z,8.29
2023-03-08T05:29:56.325Z,8.25
2023-03-08T05:32:27.440Z,8.36
2023-03-08T05:34:57.529Z,8.16
2023-03-08T05:37:34.647Z,8.06
2023-03-08T05:40:06.512Z,8.20
2023-03-08T05:42:37.836Z,8.22
2023-03-08T05:45:07.263Z,8.22
2023-03-08T05:47:39.177Z,8.34
2023-03-08T05:50:09.988Z,8.27
2023-03-08T05:52:42.659Z,8.41
2023-03-08T05:55:20.368Z,8.05
2023-03-08T05:57:58.593Z,8.28
2023-03-08T06:00:26.487Z,8.29
2023-03-08T06:03:04.021Z,8.25
2023-03-08T06:05:34.688Z,8.35
2023-03-08T06:08:16.039Z,8.28
2023-03-08T06:10:46.109Z,8.22
2023-03-08T06:13:15.479Z,8.38
2023-03-08T06:15:44.580Z,8.53
2023-03-08T06:18:16.475Z,8.62
2023-03-08T06:21:02.186Z,8.67
2023-03-08T06:23:32.079Z,8.83
2023-03-08T06:25:59.889Z,8.72
2023-03-08T06:28:28.609Z,8.65
2023-03-08T06:30:57.436Z,8.93
2023-03-08T06:33:30.103Z,9.12
2023-03-08T06:36:03.281Z,9.36
2023-03-08T06:38:33.545Z,9.48
2023-03-08T06:41:01.236Z,9.30
2023-03-08T06:43:29.361Z,9.27
2023-03-08T06:45:57.146Z,9.36
2023-03-08T06:48:29.140Z,9.53
2023-03-08T06:50:56.771Z,9.58
2023-03-08T06:53:24.488Z,9.78
2023-03-08T06:55:57.740Z,9.56
2023-03-08T06:58:25.516Z,9.28
2023-03-08T07:00:55.216Z,9.69
2023-03-08T07:03:23.307Z,9.50
2023-03-08T07:05:50.847Z,9.49
2023-03-08T07:08:18.471Z,9.65
2023-03-08T07:10:46.205Z,9.67
2023-03-08T07:13:15.465Z,9.82
2023-03-08T07:15:43.139Z,10.02
2023-03-08T07:18:13.586Z,10.00
2023-03-08T07:20:42.084Z,9.75
2023-03-08T07:23:09.783Z,9.99
2023-03-08T07:25:40.533Z,10.16
2023-03-08T07:28:08.317Z,10.43
2023-03-08T07:30:35.829Z,10.30
2023-03-08T07:33:05.727Z,10.58
2023-03-08T07:35:33.276Z,10.72
2023-03-08T07:38:00.960Z,10.52
2023-03-08T07:40:28.617Z,10.60
2023-03-08T07:42:56.331Z,10.75
2023-03-08T07:45:38.513Z,10.88
2023-03-08T07:48:06.800Z,10.73
2023-03-08T07:50:34.825Z,10.69
2023-03-08T07:53:04.526Z,10.89
2023-03-08T07:55:32.283Z,10.81
2023-03-08T07:58:04.125Z,11.42
2023-03-08T08:00:32.519Z,11.32
2023-03-08T08:03:00.188Z,11.10
2023-03-08T08:05:28.259Z,11.14
2023-03-08T08:07:56.527Z,11.01
2023-03-08T08:10:24.130Z,10.98
2023-03-08T08:12:52.928Z,11.05
2023-03-08T08:15:21.097Z,10.88
2023-03-08T08:17:51.470Z,11.19
2023-03-08T08:20:19.145Z,11.32
2023-03-08T08:22:46.830Z,11.52
2023-03-08T08:25:15.408Z,11.41
2023-03-08T08:27:43.279Z,11.76
2023-03-08T08:30:13.621Z,11.43
2023-03-08T08:32:41.569Z,11.88
2023-03-08T08:35:09.579Z,11.85
2023-03-08T08:37:37.308Z,11.96
2023-03-08T08:40:08.747Z,12.33
2023-03-08T08:42:39.601Z,12.16
2023-03-08T08:45:08.782Z,12.19
2023-03-08T08:47:36.426Z,12.56
2023-03-08T08:50:05.225Z,12.35
2023-03-08T08:52:33.247Z,12.17
2023-03-08T08:55:01.894Z,12.57
2023-03-08T08:57:29.840Z,12.45
2023-03-08T08:59:57.520Z,12.87
2023-03-08T09:02:25.210Z,13.02
2023-03-08T09:04:53.609Z,12.77
2023-03-08T09:07:21.735Z,13.22
2023-03-08T09:09:49.433Z,13.22
2023-03-08T09:12:22.594Z,12.77
2023-03-08T09:14:51.448Z,12.88
2023-03-08T09:17:19.484Z,13.06
2023-03-08T09:19:48.481Z,13.49
2023-03-08T09:22:16.456Z,13.63
2023-03-08T09:24:45.977Z,13.65
2023-03-08T09:27:15.074Z,13.47
2023-03-08T09:29:43.102Z,13.62
2023-03-08T09:32:10.738Z,13.50
2023-03-08T09:34:38.802Z,13.69
2023-03-08T09:37:08.360Z,13.74
2023-03-08T09:39:36.034Z,13.89
2023-03-08T09:42:05.170Z,14.17
2023-03-08T09:44:54.881Z,14.33
2023-03-08T09:47:32.067Z,14.56
2023-03-08T09:50:12.062Z,14.45
2023-03-08T09:53:06.225Z,14.21
2023-03-08T09:55:35.489Z,14.61
2023-03-08T09:58:16.473Z,14.67
2023-03-08T10:00:44.390Z,14.86
2023-03-08T10:03:50.547Z,14.30
2023-03-08T10:06:36.760Z,14.80
2023-03-08T10:09:14.487Z,15.03
2023-03-08T10:12:01.192Z,14.72
2023-03-08T10:14:35.282Z,14.86
2023-03-08T10:17:05.955Z,15.18
2023-03-08T10:19:37.784Z,15.45
2023-03-08T10:22:28.330Z,15.47
2023-03-08T10:25:01.822Z,15.57
2023-03-08T10:27:34.987Z,15.44
2023-03-08T10:30:14.450Z,15.51
2023-03-08T10:32:46.336Z,15.52
2023-03-08T10:35:14.035Z,15.57
2023-03-08T10:37:50.839Z,15.62
2023-03-08T10:40:21.437Z,15.51
2023-03-08T10:42:53.916Z,15.62
2023-03-08T10:45:22.532Z,15.87
2023-03-08T10:48:01.285Z,16.22
2023-03-08T10:50:30.604Z,16.03
2023-03-08T10:53:14.792Z,16.21
2023-03-08T10:55:50.318Z,16.23
2023-03-08T10:58:35.680Z,16.61
2023-03-08T11:01:22.358Z,16.85
2023-03-08T11:04:07.257Z,16.80
2023-03-08T11:06:37.568Z,16.30
2023-03-08T11:09:19.958Z,16.78
2023-03-08T11:11:47.638Z,16.44
2023-03-08T11:14:15.196Z,16.49
2023-03-08T11:16:55.343Z,16.71
2023-03-08T11:19:46.146Z,16.89
2023-03-08T11:22:32.277Z,16.94
2023-03-08T11:25:09.212Z,16.74
2023-03-08T11:27:58.716Z,16.86
2023-03-08T11:30:38.271Z,17.01
2023-03-08T11:33:20.060Z,16.95
2023-03-08T11:36:23.193Z,16.57
2023-03-08T11:39:11.250Z,16.68
2023-03-08T11:41:49.455Z,16.85
2023-03-08T11:44:56.329Z,16.75
2023-03-08T11:47:44.147Z,17.21
2023-03-08T11:50:41.523Z,17.34
2023-03-08T11:53:28.191Z,17.28
2023-03-08T11:56:17.841Z,17.14
2023-03-08T11:59:07.254Z,17.30
2023-03-08T12:02:06.663Z,16.98
2023-03-08T12:04:44.166Z,17.12
2023-03-08T12:07:28.264Z,17.11
2023-03-08T12:10:00.688Z,17.38
2023-03-08T12:12:35.518Z,17.63
2023-03-08T12:15:41.008Z,17.53
2023-03-08T12:18:34.238Z,17.73
2023-03-08T12:21:49.240Z,17.74
2023-03-08T12:24:44.795Z,17.66
2023-03-08T12:27:27.434Z,17.75
2023-03-08T12:30:01.162Z,17.82
2023-03-08T12:32:43.230Z,18.21
2023-03-08T12:35:26.853Z,18.31
2023-03-08T12:38:18.324Z,18.29
2023-03-08T12:40:50.839Z,18.14
2023-03-08T12:43:21.334Z,18.00
2023-03-08T12:45:57.560Z,18.49
2023-03-08T12:48:44.586Z,18.49
2023-03-08T12:51:12.179Z,18.24
2023-03-08T12:53:49.179Z,18.26
2023-03-08T12:56:34.859Z,18.22
2023-03-08T12:59:24.019Z,17.38
2023-03-08T13:01:57.844Z,17.67
2023-03-08T13:04:41.455Z,17.54
2023-03-08T13:07:25.940Z,17.73
2023-03-08T13:10:21.276Z,17.20
2023-03-08T13:12:48.763Z,17.30
2023-03-08T13:15:19.561Z,17.32
2023-03-08T13:18:05.907Z,17.37
2023-03-08T13:20:41.645Z,17.16
2023-03-08T13:23:16.189Z,17.30
2023-03-08T13:26:00.605Z,17.01
2023-03-08T13:28:46.567Z,17.16
2023-03-08T13:31:17.867Z,17.25
2023-03-08T13:33:48.806Z,17.20
2023-03-08T13:36:27.033Z,17.41
2023-03-08T13:39:04.260Z,17.40
2023-03-08T13:41:33.649Z,17.63
2023-03-08T13:44:08.268Z,17.51
2023-03-08T13:46:37.485Z,16.90
2023-03-08T13:49:15.543Z,17.13
2023-03-08T13:51:43.852Z,16.99
2023-03-08T13:54:16.594Z,17.00
2023-03-08T13:56:44.386Z,16.96
2023-03-08T13:59:20.417Z,16.86
2023-03-08T14:01:49.677Z,16.75
2023-03-08T14:04:24.042Z,16.91
2023-03-08T14:06:57.545Z,16.80
2023-03-08T14:09:25.986Z,16.77
2023-03-08T14:12:04.840Z,16.71
2023-03-08T14:14:40.715Z,16.48
2023-03-08T14:17:27.252Z,16.58
2023-03-08T14:20:00.756Z,16.42
2023-03-08T14:22:39.219Z,16.51
2023-03-08T14:25:20.689Z,16.53
2023-03-08T14:27:48.501Z,16.34
2023-03-08T14:30:18.579Z,16.26
2023-03-08T14:33:14.493Z,16.36
2023-03-08T14:35:53.640Z,16.32
2023-03-08T14:38:29.260Z,16.35
2023-03-08T14:40:57.058Z,16.31
2023-03-08T14:43:25.625Z,16.26
2023-03-08T14:45:57.990Z,16.19
2023-03-08T14:48:30.020Z,16.09
2023-03-08T14:51:05.528Z,15.94
2023-03-08T14:53:38.894Z,15.83
2023-03-08T14:56:16.837Z,15.74
2023-03-08T14:58:49.320Z,15.58
2023-03-08T15:01:29.080Z,15.43
2023-03-08T15:03:56.956Z,15.30
2023-03-08T15:06:27.889Z,15.12
2023-03-08T15:08:55.599Z,15.03
2023-03-08T15:11:23.718Z,14.88
2023-03-08T15:13:51.662Z,14.77
2023-03-08T15:16:19.511Z,14.71
2023-03-08T15:18:47.121Z,14.57
2023-03-08T15:21:15.752Z,14.49
2023-03-08T15:23:44.870Z,14.35
2023-03-08T15:26:14.490Z,14.24
2023-03-08T15:28:42.061Z,14.04
2023-03-08T15:31:09.728Z,13.87
2023-03-08T15:33:37.460Z,13.70
2023-03-08T15:36:05.813Z,13.63
2023-03-08T15:38:33.530Z,13.58
2023-03-08T15:41:05.737Z,13.44
2023-03-08T15:43:33.747Z,13.34
2023-03-08T15:46:01.306Z,13.23
2023-03-08T15:48:28.857Z,13.09
2023-03-08T15:50:57.386Z,12.99
2023-03-08T15:53:35.295Z,12.93
2023-03-08T15:56:03.409Z,12.87
2023-03-08T15:58:31.885Z,12.86
2023-03-08T16:00:59.428Z,12.89
2023-03-08T16:03:30.878Z,12.87
2023-03-08T16:05:59.957Z,12.79
2023-03-08T16:08:29.610Z,12.75
2023-03-08T16:11:03.838Z,12.70
2023-03-08T16:13:33.097Z,12.65
2023-03-08T16:16:01.389Z,12.57
2023-03-08T16:18:29.811Z,12.48
2023-03-08T16:20:58.322Z,12.45
2023-03-08T16:23:26.314Z,12.39
2023-03-08T16:26:14.718Z,12.37
2023-03-08T16:28:43.902Z,12.19
2023-03-08T16:31:11.499Z,12.13
2023-03-08T16:33:39.880Z,12.10
2023-03-08T16:36:08.010Z,12.05
2023-03-08T16:38:39.115Z,11.96
2023-03-08T16:41:13.325Z,11.92
2023-03-08T16:43:47.381Z,11.91
2023-03-08T16:46:17.489Z,11.87
2023-03-08T16:48:49.408Z,11.85
2023-03-08T16:51:17.856Z,11.73
2023-03-08T16:53:45.340Z,11.63
2023-03-08T16:56:19.669Z,11.71
2023-03-08T16:58:47.347Z,11.75
2023-03-08T17:01:16.722Z,11.72
2023-03-08T17:03:44.348Z,11.72
2023-03-08T17:06:13.652Z,11.66
2023-03-08T17:08:41.290Z,11.67
2023-03-08T17:11:18.981Z,11.64
2023-03-08T17:13:52.127Z,11.63
2023-03-08T17:16:28.481Z,11.68
2023-03-08T17:18:56.751Z,11.65
2023-03-08T17:21:27.860Z,11.68
2023-03-08T17:23:55.767Z,11.58
2023-03-08T17:26:23.655Z,11.60
2023-03-08T17:28:54.025Z,11.64
2023-03-08T17:31:23.049Z,11.70
2023-03-08T17:33:51.473Z,11.69
2023-03-08T17:36:21.566Z,11.80
2023-03-08T17:38:53.608Z,11.83
2023-03-08T17:41:26.062Z,11.84
2023-03-08T17:43:54.051Z,11.91
2023-03-08T17:46:23.472Z,11.92
2023-03-08T17:48:51.716Z,11.78
2023-03-08T17:51:21.284Z,12.09
2023-03-08T17:53:49.362Z,12.40
2023-03-08T17:56:20.151Z,12.62
2023-03-08T17:58:48.536Z,12.82
2023-03-08T18:01:18.305Z,12.89
2023-03-08T18:03:46.092Z,13.01
2023-03-08T18:06:25.134Z,12.94
2023-03-08T18:08:52.869Z,13.11
2023-03-08T18:11:20.694Z,13.16
2023-03-08T18:13:49.339Z,13.12
2023-03-08T18:16:17.723Z,13.03
2023-03-08T18:18:51.422Z,12.92
2023-03-08T18:21:19.736Z,13.10
2023-03-08T18:23:47.760Z,13.19
2023-03-08T18:26:17.202Z,13.21
2023-03-08T18:28:44.872Z,13.24
2023-03-08T18:31:20.839Z,13.29
2023-03-08T18:33:48.458Z,13.22
2023-03-08T18:36:25.247Z,13.17
2023-03-08T18:38:52.827Z,13.22
2023-03-08T18:41:27.660Z,13.27
2023-03-08T18:44:01.477Z,13.25
2023-03-08T18:46:30.079Z,13.28
2023-03-08T18:49:02.031Z,13.37
2023-03-08T18:51:30.620Z,13.34
2023-03-08T18:53:58.577Z,13.26
2023-03-08T18:57:22.541Z,13.29
2023-03-08T19:00:02.506Z,13.23
2023-03-08T19:02:31.482Z,13.09
2023-03-08T19:04:59.175Z,13.20
2023-03-08T19:07:26.990Z,13.20
2023-03-08T19:09:55.475Z,13.28
2023-03-08T19:12:23.126Z,13.04
2023-03-08T19:14:52.548Z,13.13
2023-03-08T19:17:20.687Z,13.12
2023-03-08T19:19:48.451Z,12.99
2023-03-08T19:22:20.269Z,13.03
2023-03-08T19:24:48.582Z,13.09
2023-03-08T19:27:16.360Z,12.99
2023-03-08T19:29:44.221Z,13.13
2023-03-08T19:32:14.982Z,13.18
2023-03-08T19:34:44.829Z,12.96
2023-03-08T19:37:13.478Z,13.05
2023-03-08T19:39:41.284Z,12.91
2023-03-08T19:42:11.546Z,13.10
2023-03-08T19:44:40.279Z,12.88
2023-03-08T19:47:10.300Z,13.13
2023-03-08T19:49:40.088Z,13.17
2023-03-08T19:52:07.924Z,13.00
2023-03-08T19:54:39.466Z,13.02
2023-03-08T19:57:07.152Z,13.08
2023-03-08T19:59:38.820Z,13.14
2023-03-08T20:02:07.489Z,13.00
2023-03-08T20:04:36.672Z,13.01
2023-03-08T20:07:05.039Z,12.89
2023-03-08T20:09:33.723Z,12.81
2023-03-08T20:12:01.373Z,12.60
2023-03-08T20:14:30.276Z,12.80
2023-03-08T20:16:59.444Z,12.77
2023-03-08T20:19:32.013Z,12.75
2023-03-08T20:22:00.359Z,12.60
2023-03-08T20:24:35.473Z,12.60
2023-03-08T20:27:04.352Z,12.63
2023-03-08T20:29:31.966Z,12.67
2023-03-08T20:31:59.738Z,12.60
2023-03-08T20:34:27.633Z,12.71
2023-03-08T20:36:56.419Z,12.67
2023-03-08T20:39:24.387Z,12.69
2023-03-08T20:41:52.116Z,12.67
2023-03-08T20:44:19.965Z,12.63
2023-03-08T20:46:48.746Z,12.60
2023-03-08T20:49:16.970Z,12.53
2023-03-08T20:51:44.599Z,12.50
2023-03-08T20:54:12.624Z,12.72
2023-03-08T20:56:41.453Z,12.84
2023-03-08T20:59:09.013Z,12.75
2023-03-08T21:01:42.174Z,12.85
2023-03-08T21:04:10.005Z,12.73
2023-03-08T21:06:37.995Z,12.79
2023-03-08T21:09:05.686Z,12.85
2023-03-08T21:11:33.315Z,12.67
2023-03-08T21:14:00.902Z,12.81
2023-03-08T21:16:28.906Z,12.66
2023-03-08T21:18:58.939Z,12.40
2023-03-08T21:21:39.715Z,12.39
2023-03-08T21:24:12.500Z,12.44
2023-03-08T21:26:40.613Z,12.26
2023-03-08T21:29:11.104Z,12.58
2023-03-08T21:31:52.368Z,12.72
2023-03-08T21:34:21.052Z,12.47
2023-03-08T21:36:49.105Z,12.43
2023-03-08T21:39:17.028Z,12.67
2023-03-08T21:41:46.007Z,12.64
2023-03-08T21:44:17.936Z,12.70
2023-03-08T21:46:46.762Z,12.70
2023-03-08T21:49:22.091Z,12.66
2023-03-08T21:51:50.518Z,12.52
2023-03-08T21:54:18.819Z,12.49
2023-03-08T21:56:47.304Z,12.39
2023-03-08T21:59:16.904Z,12.32
2023-03-08T22:01:48.900Z,12.32
2023-03-08T22:04:17.171Z,12.29
2023-03-08T22:06:44.889Z,12.38
2023-03-08T22:09:14.071Z,12.35
2023-03-08T22:11:41.865Z,12.15
2023-03-08T22:14:10.261Z,12.14
2023-03-08T22:16:40.105Z,12.07
2023-03-08T22:19:07.994Z,11.98
2023-03-08T22:21:35.698Z,12.14
2023-03-08T22:24:10.240Z,12.20
2023-03-08T22:26:37.918Z,12.17
2023-03-08T22:29:05.808Z,12.16
2023-03-08T22:31:33.638Z,12.16
2023-03-08T22:34:02.046Z,11.87
2023-03-08T22:36:31.130Z,11.74
2023-03-08T22:38:58.740Z,11.85
2023-03-08T22:41:27.532Z,11.96
2023-03-08T22:43:55.331Z,11.88
2023-03-08T22:46:26.109Z,11.95
2023-03-08T22:48:55.744Z,11.84
2023-03-08T22:51:23.595Z,11.77
2023-03-08T22:53:51.348Z,11.67
2023-03-08T22:56:29.732Z,11.67
2023-03-08T22:58:58.210Z,11.56
2023-03-08T23:01:26.497Z,11.66
2023-03-08T23:03:55.278Z,11.74
2023-03-08T23:06:28.471Z,11.89
2023-03-08T23:08:57.147Z,11.68
2023-03-08T23:11:24.911Z,11.65
2023-03-08T23:13:52.875Z,11.66
2023-03-08T23:16:20.806Z,11.59
2023-03-08T23:18:49.257Z,11.54
2023-03-08T23:21:18.035Z,11.42
2023-03-08T23:23:45.706Z,11.31
2023-03-08T23:26:15.983Z,11.45
2023-03-08T23:28:43.763Z,11.45
2023-03-08T23:31:16.769Z,11.38
2023-03-08T23:33:45.827Z,11.14
2023-03-08T23:36:14.443Z,11.27
2023-03-08T23:38:42.295Z,11.30
2023-03-08T23:41:10.547Z,11.08
2023-03-08T23:43:39.011Z,10.83
2023-03-08T23:46:07.905Z,10.69
2023-03-08T23:48:36.465Z,11.04
2023-03-08T23:51:08.042Z,11.04
2023-03-08T23:53:35.666Z,10.88
2023-03-08T23:56:04.700Z,11.00
2023-03-08T23:58:32.701Z,11.03
